Time;durP1;ratioP1;P1;durP2;ratioP2;P2;SDS_P1;SDS_P2;PMS_P1;PMS_P2;Temp;Humidity;BMP_temperature;BMP_pressure;BME280_temperature;BME280_humidity;BME280_pressure;Samples;Min_cycle;Max_cycle;Signal;HPM_P1;HPM_P2
2022/01/05 07:51:51;;;;;;;8.85;2.13;;;4.90;99.90;;;;;;5066367;28;20517;-67
2022/01/05 07:54:16;;;;;;;10.25;2.15;;;5.10;99.90;;;;;;5052090;28;20060;-67
2022/01/05 07:56:42;;;;;;;10.48;2.00;;;4.90;99.90;;;;;;5064210;28;20812;-68
2022/01/05 07:59:08;;;;;;;14.35;2.70;;;4.90;99.90;;;;;;5073629;28;20421;-67
2022/01/05 08:01:33;;;;;;;11.45;2.22;;;5.00;99.90;;;;;;5039346;28;20424;-67
2022/01/05 08:03:59;;;;;;;13.40;2.58;;;5.00;99.90;;;;;;5058257;28;20048;-67
2022/01/05 08:06:25;;;;;;;6.15;1.73;;;5.10;99.90;;;;;;5062923;28;20072;-68
2022/01/05 08:08:50;;;;;;;7.13;1.90;;;5.20;99.90;;;;;;5057616;28;20162;-68
2022/01/05 08:11:17;;;;;;;9.48;1.90;;;5.30;99.90;;;;;;5088415;28;20499;-68
2022/01/05 08:13:43;;;;;;;7.50;1.60;;;5.20;99.90;;;;;;5053777;28;20048;-69
2022/01/05 08:16:09;;;;;;;8.20;2.10;;;5.30;99.90;;;;;;5063017;28;20056;-69
2022/01/05 08:18:35;;;;;;;11.57;2.50;;;5.30;99.90;;;;;;5059603;28;20070;-68
2022/01/05 08:21:01;;;;;;;11.82;2.15;;;5.20;99.90;;;;;;5065138;28;20057;-68
2022/01/05 08:23:27;;;;;;;8.23;2.00;;;5.30;99.90;;;;;;5066532;28;20049;-68
2022/01/05 08:25:53;;;;;;;12.55;2.13;;;5.30;99.90;;;;;;5065116;28;20407;-68
2022/01/05 08:28:19;;;;;;;9.38;2.22;;;5.40;99.90;;;;;;5066092;28;20048;-68
2022/01/05 08:30:45;;;;;;;8.57;2.40;;;5.50;99.90;;;;;;5030007;28;20219;-68
2022/01/05 08:33:12;;;;;;;9.75;2.30;;;5.50;99.90;;;;;;5047115;28;20052;-68
2022/01/05 08:35:39;;;;;;;7.40;2.10;;;5.50;99.90;;;;;;5010686;28;20049;-67
2022/01/05 08:38:05;;;;;;;11.30;2.28;;;5.60;99.90;;;;;;5028399;28;20078;-67
2022/01/05 08:40:33;;;;;;;10.57;2.53;;;5.70;99.90;;;;;;5012653;28;20056;-68
2022/01/05 08:42:59;;;;;;;7.18;2.42;;;5.70;99.90;;;;;;5049943;28;20060;-67
2022/01/05 08:45:25;;;;;;;15.07;3.10;;;5.70;99.90;;;;;;5068543;28;20040;-67
2022/01/05 08:47:53;;;;;;;20.55;3.22;;;5.00;99.90;;;;;;5051666;28;20067;-65
2022/01/05 08:50:25;;;;;;;18.75;3.15;;;5.70;99.90;;;;;;5071419;28;20049;-69
2022/01/05 08:52:51;;;;;;;14.40;2.92;;;5.70;99.90;;;;;;5052886;28;20090;-67
2022/01/05 08:55:19;;;;;;;18.75;2.85;;;5.80;99.90;;;;;;5067951;28;20053;-67
2022/01/05 08:57:45;;;;;;;19.33;3.42;;;5.80;99.90;;;;;;5042447;28;20043;-67
2022/01/05 09:00:12;;;;;;;18.80;3.15;;;5.80;99.90;;;;;;5071936;28;20845;-67
2022/01/05 09:02:37;;;;;;;22.48;3.10;;;5.90;99.90;;;;;;5066912;28;20408;-68
2022/01/05 09:05:04;;;;;;;19.35;3.00;;;5.90;99.90;;;;;;5057331;28;20198;-67
2022/01/05 09:07:30;;;;;;;20.20;3.22;;;5.90;99.90;;;;;;5066420;28;20040;-69
2022/01/05 09:09:56;;;;;;;18.75;2.97;;;6.10;99.90;;;;;;5071053;28;20512;-67
2022/01/05 09:12:21;;;;;;;16.42;3.40;;;6.10;99.90;;;;;;5049400;28;20060;-67
2022/01/05 09:14:48;;;;;;;17.13;2.60;;;6.20;99.90;;;;;;5069912;28;20068;-67
2022/01/05 09:17:13;;;;;;;14.32;2.83;;;6.20;99.90;;;;;;5048313;28;20051;-67
2022/01/05 09:19:39;;;;;;;13.68;2.55;;;6.20;99.90;;;;;;5052577;28;20047;-66
2022/01/05 09:22:05;;;;;;;13.32;2.42;;;6.10;99.90;;;;;;5043218;28;20064;-67
2022/01/05 09:24:32;;;;;;;9.85;2.25;;;6.10;99.90;;;;;;5032591;28;20574;-67
2022/01/05 09:27:02;;;;;;;11.40;2.60;;;6.10;99.90;;;;;;5077902;28;20048;-67
2022/01/05 09:29:29;;;;;;;13.85;3.20;;;6.40;99.90;;;;;;5089074;28;20085;-66
2022/01/05 09:31:55;;;;;;;11.45;2.15;;;6.80;99.90;;;;;;5087864;28;20047;-66
2022/01/05 09:34:21;;;;;;;11.25;2.78;;;7.50;99.90;;;;;;5073742;28;20056;-66
2022/01/05 09:36:50;;;;;;;10.98;2.30;;;7.80;99.90;;;;;;5073951;28;20150;-68
2022/01/05 09:42:01;;;;;;;14.82;2.58;;;9.80;99.90;;;;;;5086807;28;20048;-68
2022/01/05 09:44:32;;;;;;;12.27;2.95;;;8.80;99.90;;;;;;5081443;28;20052;-69
2022/01/05 09:47:29;;;;;;;16.83;3.47;;;9.00;99.90;;;;;;5085654;28;20144;-67
2022/01/05 09:50:03;;;;;;;;;;;9.50;99.90;;;;;;5035312;28;20500;-67
2022/01/05 09:52:31;;;;;;;14.68;2.40;;;9.80;99.90;;;;;;5047558;28;19921;-67
2022/01/05 09:54:57;;;;;;;12.73;3.00;;;10.20;99.90;;;;;;5046212;28;20105;-67
2022/01/05 09:57:24;;;;;;;13.88;2.42;;;10.30;99.90;;;;;;5070686;28;20048;-68
2022/01/05 09:59:51;;;;;;;18.05;3.10;;;10.20;99.90;;;;;;5053089;28;20499;-68
2022/01/05 10:02:18;;;;;;;13.15;2.60;;;10.40;99.90;;;;;;5031941;28;20481;-68
2022/01/05 10:04:45;;;;;;;11.75;2.85;;;10.40;99.90;;;;;;5050063;28;20131;-68
2022/01/05 10:07:12;;;;;;;18.50;3.20;;;11.40;99.90;;;;;;5051136;28;20052;-68
2022/01/05 10:09:39;;;;;;;13.18;2.88;;;11.00;99.90;;;;;;5070466;28;20044;-68
2022/01/05 10:12:05;;;;;;;11.73;2.55;;;11.30;99.90;;;;;;5068508;28;20461;-68
2022/01/05 10:14:31;;;;;;;18.80;3.08;;;11.60;99.90;;;;;;5050631;28;20102;-67
2022/01/05 10:17:03;;;;;;;12.40;2.40;;;11.70;99.90;;;;;;5048808;28;20396;-70
2022/01/05 10:19:28;;;;;;;14.02;3.05;;;11.80;99.90;;;;;;5020798;28;20051;-69
2022/01/05 10:21:55;;;;;;;11.10;2.90;;;11.90;99.90;;;;;;5059330;28;20431;-69
2022/01/05 10:24:40;;;;;;;14.80;3.10;;;12.10;99.90;;;;;;5065309;28;20071;-70
2022/01/05 10:27:06;;;;;;;15.27;3.25;;;12.40;99.90;;;;;;5033660;28;20496;-70
2022/01/05 10:29:33;;;;;;;12.40;2.60;;;12.50;99.90;;;;;;5033203;28;20060;-69
2022/01/05 10:32:01;;;;;;;14.18;2.78;;;12.70;99.90;;;;;;5050602;28;20040;-69
2022/01/05 10:34:29;;;;;;;15.10;3.17;;;12.70;99.90;;;;;;5045554;28;20053;-70
2022/01/05 10:37:03;;;;;;;16.40;3.00;;;13.10;99.90;;;;;;5047456;28;20045;-69
2022/01/05 10:39:39;;;;;;;14.93;3.22;;;14.00;99.90;;;;;;5061974;28;20147;-69
2022/01/05 10:42:07;;;;;;;18.10;3.03;;;14.00;99.90;;;;;;5036801;28;20409;-68
2022/01/05 10:44:33;;;;;;;17.20;3.00;;;13.60;99.90;;;;;;5077520;28;20114;-68
2022/01/05 10:47:00;;;;;;;18.30;3.10;;;14.00;99.90;;;;;;5055970;28;20049;-68
2022/01/05 10:49:38;;;;;;;16.27;3.00;;;13.30;99.90;;;;;;5069204;28;20138;-68
2022/01/05 10:52:35;;;;;;;21.20;3.67;;;13.10;99.90;;;;;;5046797;28;20045;-68
2022/01/05 10:55:16;;;;;;;17.75;3.67;;;12.70;99.90;;;;;;5045270;28;20059;-69
2022/01/05 10:58:05;;;;;;;21.30;3.45;;;12.50;99.90;;;;;;5066733;28;20044;-69
2022/01/05 11:00:35;;;;;;;20.58;3.83;;;12.70;99.90;;;;;;5061862;28;20063;-69
2022/01/05 11:03:02;;;;;;;23.88;4.15;;;13.70;99.90;;;;;;5077695;28;20075;-68
2022/01/05 11:05:28;;;;;;;20.08;3.83;;;12.80;99.90;;;;;;5067126;28;20417;-67
2022/01/05 11:08:07;;;;;;;18.65;3.88;;;12.80;99.90;;;;;;5084644;28;20067;-69
2022/01/05 11:10:33;;;;;;;18.45;3.28;;;13.60;99.90;;;;;;5084219;28;20165;-67
2022/01/05 11:12:59;;;;;;;16.63;3.50;;;13.80;99.90;;;;;;5051391;28;20131;-67
2022/01/05 11:15:30;;;;;;;16.35;3.70;;;14.20;99.90;;;;;;5070652;28;20088;-68
2022/01/05 11:18:16;;;;;;;15.00;3.08;;;14.70;99.90;;;;;;5074279;28;20469;-68
2022/01/05 11:20:43;;;;;;;20.42;3.83;;;15.20;99.90;;;;;;5055255;28;20044;-68
2022/01/05 11:23:10;;;;;;;17.50;3.17;;;15.90;99.90;;;;;;5054005;28;20242;-68
2022/01/05 11:25:38;;;;;;;18.63;3.70;;;16.30;99.90;;;;;;5067073;28;20084;-69
2022/01/05 11:28:06;;;;;;;17.10;3.60;;;16.30;99.90;;;;;;5038707;28;20056;-68
2022/01/05 11:30:32;;;;;;;13.05;3.42;;;16.60;99.90;;;;;;5072470;28;20081;-67
2022/01/05 11:32:59;;;;;;;22.90;3.72;;;16.40;99.90;;;;;;5053046;28;20040;-68
2022/01/05 11:35:24;;;;;;;14.38;3.67;;;17.30;99.90;;;;;;5069181;28;20491;-67
2022/01/05 11:37:50;;;;;;;16.83;3.70;;;17.00;99.90;;;;;;5051099;28;20067;-69
2022/01/05 11:40:17;;;;;;;19.17;3.92;;;17.60;99.90;;;;;;5063195;28;20052;-68
2022/01/05 11:42:48;;;;;;;18.77;3.25;;;18.10;98.60;;;;;;5051075;28;20140;-67
2022/01/05 11:45:31;;;;;;;15.50;3.90;;;18.30;97.50;;;;;;5059040;28;20047;-67
2022/01/05 11:48:22;;;;;;;15.70;3.45;;;18.00;97.60;;;;;;5034965;28;20120;-67
2022/01/05 11:51:03;;;;;;;19.60;3.72;;;17.60;98.20;;;;;;5035114;28;20109;-68
2022/01/05 11:53:44;;;;;;;17.65;3.65;;;16.70;99.30;;;;;;5031000;28;20132;-67
2022/01/05 11:56:16;;;;;;;20.63;3.30;;;15.80;99.90;;;;;;5047959;28;20108;-67
2022/01/05 11:58:52;;;;;;;17.17;3.13;;;15.00;99.90;;;;;;5068529;28;20052;-67
2022/01/05 12:01:19;;;;;;;12.45;3.15;;;14.70;99.90;;;;;;5069298;28;20053;-68
2022/01/05 12:03:56;;;;;;;13.15;3.00;;;16.40;99.90;;;;;;5069917;28;20074;-67
2022/01/05 12:06:33;;;;;;;20.77;3.90;;;16.40;99.40;;;;;;5050745;28;20053;-68
2022/01/05 12:09:02;;;;;;;15.00;3.28;;;16.30;99.20;;;;;;5071429;28;20057;-67
2022/01/05 12:11:40;;;;;;;19.02;3.55;;;15.80;99.80;;;;;;5029604;28;20045;-67
2022/01/05 12:14:21;;;;;;;14.98;3.38;;;16.00;99.90;;;;;;5040543;28;20055;-67
2022/01/05 12:17:02;;;;;;;12.88;2.65;;;15.70;99.90;;;;;;5036092;28;20044;-67
2022/01/05 12:19:48;;;;;;;12.32;2.80;;;14.70;99.90;;;;;;5080489;28;20048;-67
2022/01/05 12:22:25;;;;;;;9.57;2.60;;;13.80;99.90;;;;;;5088599;28;20139;-67
2022/01/05 12:24:54;;;;;;;13.35;2.72;;;13.30;99.90;;;;;;5062121;28;20092;-68
2022/01/05 12:27:22;;;;;;;12.13;2.53;;;13.00;99.90;;;;;;5072159;28;20132;-67
2022/01/05 12:29:49;;;;;;;13.73;2.85;;;13.60;99.90;;;;;;5083719;28;20036;-67
2022/01/05 12:32:32;;;;;;;10.55;2.67;;;15.00;99.90;;;;;;5070841;28;20046;-67
2022/01/05 12:35:05;;;;;;;18.55;3.45;;;16.10;99.10;;;;;;5050381;28;20519;-68
2022/01/05 12:37:44;;;;;;;10.82;2.60;;;16.60;99.60;;;;;;5034502;28;20131;-68
2022/01/05 12:40:32;;;;;;;11.05;2.97;;;17.80;97.20;;;;;;5080484;28;20462;-68
2022/01/05 12:43:06;;;;;;;15.73;3.20;;;18.70;95.50;;;;;;5070399;28;20427;-67
2022/01/05 12:45:47;;;;;;;16.75;3.30;;;19.00;93.90;;;;;;5069019;28;20074;-68
2022/01/05 12:48:39;;;;;;;18.17;3.15;;;17.40;95.30;;;;;;5065104;28;20084;-67
2022/01/05 12:51:17;;;;;;;16.60;3.20;;;15.70;98.20;;;;;;5059500;28;20084;-70
2022/01/05 12:53:49;;;;;;;12.93;2.88;;;14.40;99.90;;;;;;5060960;28;20063;-69
2022/01/05 12:56:19;;;;;;;15.07;2.97;;;13.40;99.90;;;;;;5073051;28;20063;-70
2022/01/05 12:58:47;;;;;;;19.85;3.33;;;12.60;99.90;;;;;;5066612;28;20041;-69
2022/01/05 13:01:13;;;;;;;16.73;3.65;;;12.00;99.90;;;;;;5089173;28;20198;-71
2022/01/05 13:03:40;;;;;;;16.27;3.63;;;12.50;99.90;;;;;;5079602;28;20055;-70
2022/01/05 13:06:18;;;;;;;20.60;4.05;;;12.10;99.90;;;;;;5064247;28;20056;-71
2022/01/05 13:08:48;;;;;;;15.52;3.63;;;13.00;99.90;;;;;;5046134;28;20057;-71
2022/01/05 13:11:15;;;;;;;13.05;3.60;;;13.70;99.90;;;;;;5028760;28;20052;-71
2022/01/05 13:13:42;;;;;;;16.55;3.05;;;13.60;99.90;;;;;;5040695;28;20055;-71
2022/01/05 13:16:09;;;;;;;17.60;3.58;;;12.90;99.90;;;;;;5059862;28;20166;-70
2022/01/05 13:18:34;;;;;;;19.63;3.40;;;12.40;99.90;;;;;;5069619;28;20520;-69
2022/01/05 13:21:00;;;;;;;20.77;4.43;;;12.30;99.90;;;;;;5041916;28;20609;-70
2022/01/05 13:23:26;;;;;;;16.92;3.50;;;12.30;99.90;;;;;;5041291;28;20057;-70
2022/01/05 13:25:51;;;;;;;22.00;3.80;;;12.00;99.90;;;;;;5077642;28;20139;-70
2022/01/05 13:28:17;;;;;;;18.80;3.78;;;11.80;99.90;;;;;;5073962;28;20044;-66
2022/01/05 13:30:45;;;;;;;17.58;3.38;;;11.70;99.90;;;;;;5052307;28;21658;-65
2022/01/05 13:33:14;;;;;;;18.70;3.53;;;11.50;99.90;;;;;;5055895;28;20062;-65
2022/01/05 13:35:41;;;;;;;12.48;2.42;;;11.20;99.90;;;;;;5060070;28;20082;-65
2022/01/05 13:38:17;;;;;;;9.98;2.42;;;10.80;99.90;;;;;;5048790;28;20471;-66
2022/01/05 13:40:54;;;;;;;6.93;2.00;;;10.40;99.90;;;;;;5075660;28;20052;-65
2022/01/05 13:43:20;;;;;;;9.00;2.33;;;9.40;99.90;;;;;;5085745;28;20811;-66
2022/01/05 13:45:49;;;;;;;11.48;2.40;;;9.60;99.90;;;;;;5085317;28;20052;-67
2022/01/05 13:48:19;;;;;;;14.82;2.40;;;9.20;99.90;;;;;;5076568;28;20116;-66
2022/01/05 13:50:47;;;;;;;12.68;3.08;;;9.00;99.90;;;;;;5082230;28;20043;-67
2022/01/05 13:53:24;;;;;;;19.73;3.33;;;8.90;99.90;;;;;;5069382;28;20130;-67
2022/01/05 13:56:03;;;;;;;16.85;2.97;;;8.70;99.90;;;;;;5057510;28;20461;-67
2022/01/05 13:58:32;;;;;;;20.40;3.20;;;8.70;99.90;;;;;;5054192;28;20621;-67
2022/01/05 14:01:07;;;;;;;17.88;3.17;;;8.70;99.90;;;;;;5082307;28;20207;-67
2022/01/05 14:03:36;;;;;;;20.50;3.20;;;8.60;99.90;;;;;;5050571;28;20048;-67
2022/01/05 14:06:05;;;;;;;20.80;3.35;;;8.60;99.90;;;;;;5045446;28;20056;-67
2022/01/05 14:08:37;;;;;;;16.08;2.88;;;8.60;99.90;;;;;;5030236;28;20118;-65
2022/01/05 14:11:08;;;;;;;16.67;3.40;;;8.60;99.90;;;;;;5028893;28;20106;-65
2022/01/05 14:13:48;;;;;;;14.30;2.78;;;8.70;99.90;;;;;;5054732;28;20051;-65
2022/01/05 14:16:40;;;;;;;16.60;3.10;;;8.80;99.90;;;;;;5048032;28;20063;-67
2022/01/05 14:19:15;;;;;;;16.45;2.58;;;8.80;99.90;;;;;;5065628;28;20051;-66
2022/01/05 14:21:41;;;;;;;18.80;3.20;;;8.80;99.90;;;;;;5067884;28;20424;-66
2022/01/05 14:24:09;;;;;;;12.65;2.90;;;8.80;99.90;;;;;;5051272;28;21291;-66
2022/01/05 14:26:38;;;;;;;14.57;2.75;;;9.60;99.90;;;;;;5066667;28;20040;-65
2022/01/05 14:29:03;;;;;;;18.20;3.30;;;8.70;99.90;;;;;;5067740;28;20128;-65
2022/01/05 14:31:39;;;;;;;20.65;3.63;;;8.70;99.90;;;;;;5067254;28;20183;-66
2022/01/05 14:34:10;;;;;;;18.00;3.42;;;8.60;99.90;;;;;;5049291;28;20052;-67
2022/01/05 14:36:38;;;;;;;17.75;3.28;;;8.50;99.90;;;;;;5064412;28;20056;-66
2022/01/05 14:39:22;;;;;;;24.45;3.58;;;8.30;99.90;;;;;;5046377;28;20095;-66
2022/01/05 14:41:58;;;;;;;24.75;3.72;;;9.00;99.90;;;;;;5047627;28;20079;-67
2022/01/05 14:44:30;;;;;;;21.83;3.90;;;8.20;99.90;;;;;;5029505;28;20126;-67
2022/01/05 14:46:59;;;;;;;19.65;3.58;;;8.20;99.90;;;;;;5048200;28;20080;-66
2022/01/05 14:49:26;;;;;;;19.08;3.08;;;8.20;99.90;;;;;;5047633;28;20053;-66
2022/01/05 14:51:52;;;;;;;19.45;4.07;;;8.10;99.90;;;;;;5029978;28;20401;-66
2022/01/05 14:54:23;;;;;;;20.55;4.03;;;8.10;99.90;;;;;;5063909;28;20040;-66
2022/01/05 14:56:49;;;;;;;27.10;4.25;;;8.00;99.90;;;;;;5064553;28;20129;-66
2022/01/05 14:59:15;;;;;;;23.60;3.60;;;8.00;99.90;;;;;;5065430;28;20139;-67
2022/01/05 15:01:41;;;;;;;30.05;4.13;;;7.90;99.90;;;;;;5064881;28;20048;-66
2022/01/05 15:04:07;;;;;;;21.52;3.65;;;7.90;99.90;;;;;;5044255;28;20049;-67
2022/01/05 15:06:34;;;;;;;20.23;4.45;;;7.90;99.90;;;;;;5055560;28;20044;-67
2022/01/05 15:09:00;;;;;;;24.42;3.85;;;7.90;99.90;;;;;;5044509;28;20560;-68
2022/01/05 15:11:26;;;;;;;19.30;3.72;;;7.90;99.90;;;;;;5028605;28;20480;-67
2022/01/05 15:13:52;;;;;;;23.83;4.20;;;7.90;99.90;;;;;;5054447;28;20044;-67
2022/01/05 15:16:17;;;;;;;21.92;4.32;;;7.90;99.90;;;;;;5059851;28;20060;-67
2022/01/05 15:18:44;;;;;;;23.08;4.30;;;7.90;99.90;;;;;;5073983;28;20048;-68
2022/01/05 15:21:11;;;;;;;23.10;4.68;;;7.90;99.90;;;;;;5079864;28;20052;-67
2022/01/05 15:23:37;;;;;;;16.42;2.30;;;7.90;99.90;;;;;;5035444;28;20056;-67
2022/01/05 15:26:03;;;;;;;13.10;2.90;;;7.90;99.90;;;;;;5073280;28;20138;-66
2022/01/05 15:28:30;;;;;;;10.73;2.63;;;9.10;99.90;;;;;;5055767;28;20082;-68
2022/01/05 15:30:57;;;;;;;18.08;3.35;;;7.70;99.90;;;;;;5090691;28;20050;-66
2022/01/05 15:33:22;;;;;;;13.60;2.40;;;7.60;99.90;;;;;;5090732;28;20102;-66
2022/01/05 15:35:49;;;;;;;19.35;3.08;;;8.00;99.90;;;;;;5074382;28;20060;-65
2022/01/05 15:38:16;;;;;;;19.10;3.33;;;7.40;99.90;;;;;;5077003;28;20076;-66
2022/01/05 15:40:42;;;;;;;21.88;3.75;;;7.40;99.90;;;;;;5036622;28;20098;-66
2022/01/05 15:43:09;;;;;;;13.68;3.58;;;7.40;99.90;;;;;;5086575;28;20762;-65
2022/01/05 15:45:35;;;;;;;20.35;3.47;;;7.30;99.90;;;;;;5069949;28;20041;-66
2022/01/05 15:48:00;;;;;;;22.52;4.57;;;7.30;99.90;;;;;;5051421;28;20055;-66
2022/01/05 15:50:28;;;;;;;20.38;3.55;;;7.20;99.90;;;;;;5071714;28;20127;-65
2022/01/05 15:52:55;;;;;;;21.52;3.42;;;7.20;99.90;;;;;;5069333;28;20052;-66
2022/01/05 15:55:22;;;;;;;19.20;4.10;;;7.20;99.90;;;;;;5051078;28;20127;-66
2022/01/05 16:03:05;;;;;;;22.50;4.30;;;7.30;99.90;;;;;;5068490;28;20056;-66
2022/01/05 16:05:31;;;;;;;22.42;4.93;;;7.20;99.90;;;;;;5050463;28;20395;-65
2022/01/05 16:07:57;;;;;;;31.88;4.72;;;7.20;99.90;;;;;;5067932;28;20052;-65
2022/01/05 16:10:23;;;;;;;26.48;4.75;;;7.20;99.90;;;;;;5067532;28;20124;-65
2022/01/05 16:12:49;;;;;;;29.52;4.93;;;7.30;99.90;;;;;;5050211;28;20088;-66
2022/01/05 16:15:16;;;;;;;22.08;4.22;;;7.30;99.90;;;;;;5049100;28;20467;-66
2022/01/05 16:17:45;;;;;;;21.52;4.70;;;7.40;99.90;;;;;;5050208;28;20054;-65
2022/01/05 16:20:12;;;;;;;24.80;4.80;;;7.30;99.90;;;;;;5073750;28;20067;-66
2022/01/05 16:22:38;;;;;;;23.98;4.78;;;7.30;99.90;;;;;;5069311;28;20448;-66
2022/01/05 16:25:08;;;;;;;21.42;5.05;;;7.20;99.90;;;;;;5050502;28;20053;-66
2022/01/05 16:27:35;;;;;;;20.83;4.85;;;7.20;99.90;;;;;;5059960;28;20401;-66
2022/01/05 16:30:01;;;;;;;24.10;4.47;;;7.10;99.90;;;;;;5070678;28;20055;-67
2022/01/05 16:32:27;;;;;;;22.85;4.22;;;7.10;99.90;;;;;;5061851;28;20052;-66
2022/01/05 16:34:53;;;;;;;27.42;4.97;;;7.00;99.90;;;;;;5092538;28;20065;-67
2022/01/05 16:37:21;;;;;;;26.23;4.47;;;6.90;99.90;;;;;;5054340;28;20114;-67
2022/01/05 16:39:46;;;;;;;22.65;4.28;;;7.40;99.90;;;;;;5049447;28;20127;-67
2022/01/05 16:42:12;;;;;;;25.23;4.15;;;7.90;99.90;;;;;;5054136;28;20548;-66
2022/01/05 16:44:38;;;;;;;28.08;4.90;;;7.20;99.90;;;;;;5068864;28;20123;-66
2022/01/05 16:47:04;;;;;;;24.88;4.78;;;6.70;99.90;;;;;;5059221;28;20147;-66
2022/01/05 16:49:29;;;;;;;30.63;5.68;;;6.70;99.90;;;;;;5088768;28;20060;-67
2022/01/05 16:51:55;;;;;;;22.58;4.28;;;6.70;99.90;;;;;;5071800;28;20054;-66
2022/01/05 16:54:21;;;;;;;20.27;4.32;;;6.70;99.90;;;;;;5049907;28;20174;-66
2022/01/05 17:02:07;;;;;;;26.38;4.97;;;6.70;99.90;;;;;;5067483;28;20049;-66
2022/01/05 17:04:33;;;;;;;22.40;4.88;;;6.70;99.90;;;;;;5068236;28;20094;-66
2022/01/05 17:06:58;;;;;;;28.48;4.75;;;6.70;99.90;;;;;;5067855;28;20041;-67
2022/01/05 17:09:24;;;;;;;30.33;5.47;;;6.80;99.90;;;;;;5050952;28;20131;-65
2022/01/05 17:11:52;;;;;;;27.63;4.45;;;6.90;99.90;;;;;;5033845;28;20367;-66
2022/01/05 17:14:18;;;;;;;21.02;3.63;;;6.90;99.90;;;;;;5069545;28;20048;-66
2022/01/05 17:16:44;;;;;;;27.70;4.72;;;6.80;99.90;;;;;;5067326;28;20400;-64
2022/01/05 17:19:10;;;;;;;23.17;4.80;;;6.90;99.90;;;;;;5070800;28;20061;-66
2022/01/05 17:21:36;;;;;;;20.80;4.00;;;6.80;99.90;;;;;;5048580;28;20045;-66
2022/01/05 17:24:04;;;;;;;19.30;3.58;;;6.80;99.90;;;;;;5067152;28;20088;-67
2022/01/05 17:26:30;;;;;;;13.35;3.05;;;6.80;99.90;;;;;;5062867;28;20146;-65
2022/01/05 17:28:55;;;;;;;13.95;3.50;;;6.80;99.90;;;;;;5061463;28;20488;-65
2022/01/05 17:31:24;;;;;;;14.98;2.67;;;8.00;99.90;;;;;;5083679;28;20059;-65
2022/01/05 17:33:57;;;;;;;14.73;3.10;;;6.80;99.90;;;;;;5080042;28;20048;-66
2022/01/05 17:36:26;;;;;;;11.75;3.40;;;6.70;99.90;;;;;;5052161;28;20134;-65
2022/01/05 17:38:55;;;;;;;14.38;2.50;;;6.70;99.90;;;;;;5067822;28;20059;-66
2022/01/05 17:41:21;;;;;;;13.85;3.33;;;6.70;99.90;;;;;;5049949;28;20051;-66
2022/01/05 17:43:47;;;;;;;22.38;3.60;;;6.60;99.90;;;;;;5069105;28;20053;-66
2022/01/05 17:46:15;;;;;;;15.77;3.63;;;6.60;99.90;;;;;;5049116;28;20136;-66
2022/01/05 17:48:45;;;;;;;15.63;3.20;;;6.60;99.90;;;;;;5068432;28;20052;-66
2022/01/05 17:51:15;;;;;;;17.33;3.53;;;6.60;99.90;;;;;;5058412;28;20052;-66
2022/01/05 17:53:42;;;;;;;23.73;4.68;;;6.50;99.90;;;;;;5049316;28;20396;-67
2022/01/05 17:56:08;;;;;;;17.35;3.72;;;6.50;99.90;;;;;;5028425;28;20056;-67
2022/01/05 17:58:33;;;;;;;23.08;4.55;;;6.50;99.90;;;;;;5031915;28;20555;-66
2022/01/05 18:00:59;;;;;;;18.33;4.38;;;7.10;99.90;;;;;;5049277;28;20056;-66
2022/01/05 18:03:26;;;;;;;17.15;3.40;;;6.70;99.90;;;;;;5029518;28;20053;-66
2022/01/05 18:05:52;;;;;;;22.98;4.22;;;6.60;99.90;;;;;;5064255;28;20052;-66
2022/01/05 18:08:18;;;;;;;19.85;4.03;;;6.40;99.90;;;;;;5034220;28;20385;-67
2022/01/05 18:10:44;;;;;;;25.55;4.28;;;6.30;99.90;;;;;;5070186;28;20053;-66
2022/01/05 18:13:10;;;;;;;24.65;4.22;;;6.60;99.90;;;;;;5069673;28;20106;-71
2022/01/05 18:15:36;;;;;;;18.33;3.20;;;6.10;99.90;;;;;;5066789;28;20151;-71
2022/01/05 18:18:01;;;;;;;11.73;2.53;;;6.00;99.90;;;;;;5064437;28;20207;-71
2022/01/05 18:20:29;;;;;;;19.92;3.45;;;6.70;99.90;;;;;;5063969;28;20096;-69
2022/01/05 18:22:55;;;;;;;21.10;3.72;;;5.90;99.90;;;;;;5063816;28;20056;-71
2022/01/05 18:25:21;;;;;;;25.10;3.78;;;5.80;99.90;;;;;;5064119;28;20049;-68
2022/01/05 18:27:47;;;;;;;20.27;3.67;;;5.90;99.90;;;;;;5045711;28;20130;-69
2022/01/05 18:30:13;;;;;;;16.00;3.33;;;5.80;99.90;;;;;;5028939;28;20441;-70
2022/01/05 18:32:39;;;;;;;14.85;3.38;;;5.80;99.90;;;;;;5054676;28;20048;-69
2022/01/05 18:35:07;;;;;;;14.73;3.05;;;5.80;99.90;;;;;;5056250;28;20040;-69
2022/01/05 18:37:35;;;;;;;16.13;2.80;;;5.90;99.90;;;;;;5062772;28;20059;-69
2022/01/05 18:40:03;;;;;;;21.08;3.65;;;5.80;99.90;;;;;;5046153;28;20107;-70
2022/01/05 18:42:29;;;;;;;12.82;2.25;;;5.80;99.90;;;;;;5045817;28;20060;-68
2022/01/05 18:44:55;;;;;;;15.00;3.40;;;5.80;99.90;;;;;;5045718;28;20079;-69
2022/01/05 18:47:22;;;;;;;15.43;3.33;;;5.80;99.90;;;;;;5059068;28;20089;-70
2022/01/05 18:49:48;;;;;;;14.45;2.70;;;5.70;99.90;;;;;;5028126;28;20053;-70
2022/01/05 18:52:15;;;;;;;18.63;3.60;;;5.80;99.90;;;;;;5035625;28;20056;-70
2022/01/05 18:54:41;;;;;;;13.43;3.22;;;5.70;99.90;;;;;;5065664;28;20106;-70
2022/01/05 18:57:06;;;;;;;17.33;3.25;;;5.70;99.90;;;;;;5068127;28;20056;-70
2022/01/05 18:59:33;;;;;;;15.43;3.38;;;5.80;99.90;;;;;;5067383;28;20126;-70
2022/01/05 19:01:59;;;;;;;12.57;2.80;;;5.80;99.90;;;;;;5066084;28;20128;-70
2022/01/05 19:04:24;;;;;;;20.42;3.17;;;5.80;99.90;;;;;;5033789;28;20060;-70
2022/01/05 19:06:50;;;;;;;16.42;3.80;;;5.70;99.90;;;;;;5049336;28;20060;-70
2022/01/05 19:09:19;;;;;;;12.93;3.03;;;5.70;99.90;;;;;;5049260;28;20346;-70
2022/01/05 19:11:45;;;;;;;21.75;3.58;;;5.70;99.90;;;;;;5067010;28;20078;-70
2022/01/05 19:14:14;;;;;;;11.05;2.80;;;5.70;99.90;;;;;;5063317;28;20045;-69
2022/01/05 19:16:41;;;;;;;12.77;2.70;;;5.70;99.90;;;;;;5058696;28;20119;-69
2022/01/05 19:19:07;;;;;;;15.05;3.33;;;5.60;99.90;;;;;;5029049;28;20346;-70
2022/01/05 19:21:33;;;;;;;19.30;3.28;;;5.60;99.90;;;;;;5048082;28;20114;-70
2022/01/05 19:23:59;;;;;;;16.27;2.78;;;5.50;99.90;;;;;;5047015;28;20715;-70
2022/01/05 19:26:25;;;;;;;16.20;4.25;;;5.50;99.90;;;;;;5065406;28;20756;-70
2022/01/05 19:28:51;;;;;;;19.40;3.53;;;5.40;99.90;;;;;;5067792;28;20060;-70
2022/01/05 19:31:18;;;;;;;15.40;3.45;;;5.50;99.90;;;;;;5030446;28;20538;-71
2022/01/05 19:33:44;;;;;;;14.88;2.70;;;5.30;99.90;;;;;;5048868;28;20512;-71
2022/01/05 19:36:10;;;;;;;19.05;3.42;;;5.30;99.90;;;;;;5069064;28;20424;-71
2022/01/05 19:38:36;;;;;;;18.45;3.75;;;5.20;99.90;;;;;;5049718;28;20049;-69
2022/01/05 19:41:03;;;;;;;16.60;3.28;;;5.30;99.90;;;;;;5046796;28;20060;-71
2022/01/05 19:43:29;;;;;;;13.07;3.25;;;5.40;99.90;;;;;;5067710;28;20060;-70
2022/01/05 19:45:56;;;;;;;16.20;3.60;;;5.50;99.90;;;;;;5053870;28;20400;-70
2022/01/05 19:48:21;;;;;;;17.42;3.65;;;6.60;99.90;;;;;;5066649;28;20519;-70
2022/01/05 19:50:58;;;;;;;18.85;3.30;;;5.20;99.90;;;;;;5047080;28;20137;-70
2022/01/05 19:53:27;;;;;;;14.00;2.88;;;5.50;99.90;;;;;;5065894;28;20403;-70
2022/01/05 19:56:04;;;;;;;19.40;3.88;;;5.50;99.90;;;;;;5047064;28;20049;-70
2022/01/05 19:58:29;;;;;;;21.25;3.28;;;5.40;99.90;;;;;;5064446;28;20060;-70
2022/01/05 20:00:55;;;;;;;17.98;3.10;;;5.40;99.90;;;;;;5065036;28;20057;-69
2022/01/05 20:03:21;;;;;;;12.23;2.60;;;5.40;99.90;;;;;;5048525;28;20076;-70
2022/01/05 20:05:46;;;;;;;17.85;2.80;;;5.40;99.90;;;;;;5065764;28;20064;-70
2022/01/05 20:08:12;;;;;;;14.63;2.70;;;5.50;99.90;;;;;;5055797;28;20064;-70
2022/01/05 20:10:38;;;;;;;17.10;3.00;;;5.40;99.90;;;;;;5077355;28;20055;-70
2022/01/05 20:13:05;;;;;;;17.00;3.20;;;5.40;99.90;;;;;;5086190;28;20449;-70
2022/01/05 20:15:31;;;;;;;14.00;2.95;;;5.40;99.90;;;;;;5088287;28;20044;-70
2022/01/05 20:17:56;;;;;;;16.73;3.30;;;5.60;99.90;;;;;;5086696;28;20491;-69
2022/01/05 20:20:23;;;;;;;17.98;3.38;;;5.40;99.90;;;;;;5079648;28;20127;-69
2022/01/05 20:22:48;;;;;;;11.55;2.38;;;5.50;99.90;;;;;;5066395;28;20098;-69
2022/01/05 20:25:14;;;;;;;18.00;3.20;;;5.80;99.90;;;;;;5048390;28;20489;-70
2022/01/05 20:27:40;;;;;;;15.57;3.05;;;5.70;99.90;;;;;;5048675;28;20063;-69
2022/01/05 20:30:08;;;;;;;15.95;3.20;;;5.70;99.90;;;;;;5066288;28;20063;-69
2022/01/05 20:32:35;;;;;;;13.05;2.70;;;5.70;99.90;;;;;;5065603;28;20072;-69
2022/01/05 20:35:01;;;;;;;17.48;2.33;;;5.60;99.90;;;;;;5066879;28;20125;-70
2022/01/05 20:37:26;;;;;;;13.27;2.28;;;5.70;99.90;;;;;;5046184;28;20108;-69
2022/01/05 20:39:52;;;;;;;12.05;2.67;;;5.60;99.90;;;;;;5046504;28;20037;-69
2022/01/05 20:42:18;;;;;;;10.50;2.35;;;5.50;99.90;;;;;;5028198;28;20115;-69
2022/01/05 20:44:44;;;;;;;12.95;2.80;;;5.40;99.90;;;;;;5028291;28;20156;-69
2022/01/05 20:47:10;;;;;;;12.02;2.85;;;5.30;99.90;;;;;;5039077;28;20519;-69
2022/01/05 20:49:37;;;;;;;15.55;2.75;;;5.20;99.90;;;;;;5047723;28;20086;-68
2022/01/05 20:52:05;;;;;;;17.23;2.70;;;5.10;99.90;;;;;;5065848;28;20357;-69
2022/01/05 20:54:30;;;;;;;15.77;3.00;;;5.20;99.90;;;;;;5047508;28;20067;-69
2022/01/05 20:56:56;;;;;;;12.93;3.33;;;6.00;99.90;;;;;;5048262;28;20056;-69